Athelstane, WI

12:07 AM CST on December 12, 2019 (GMT -0600)
Big Newton Lake | | Change Station
Active Advisory: Winter Storm Warning

Elev 709 ft 45.37 °N, 88.11 °W | Updated 19 seconds ago

Mostly Cloudy
Mostly Cloudy
-0.9 °F
Feels Like -1 °F
N
0
Wind Variable Wind from South
Gusts 0.0 mph

Today
High -- | Low -- °F
--% Chance of Precip.
Yesterday
High -- | Low -- °F
Precip. -- in
Pressure 30.48 in
Visibility 10.0 miles
Clouds Overcast 11000 ft
Windchill -1 °F
Dew Point -4 °F
Humidity 86%
Rainfall 0.00 in
Snow Depth Not available.
7:22 AM 4:09 PM
Full, 100% visible
METAR KIMT 120554Z AUTO 29003KT 10SM OVC110 M17/M22 A3038 RMK AO2 SLP320 I6000 T11721217 11172 21206 411331228 50002
Pressure 30.48 in
Visibility 10.0 miles
Clouds Overcast 11000 ft
Windchill -1 °F
Dew Point -4 °F
Humidity 86%
Rainfall 0.00 in
Snow Depth Not available.
7:22 AM 4:09 PM
Full, 100% visible
METAR KIMT 120554Z AUTO 29003KT 10SM OVC110 M17/M22 A3038 RMK AO2 SLP320 I6000 T11721217 11172 21206 411331228 50002

Get Your Daily Forecast Email!

Thanks for signing up!

Be on the lookout for a verification email in your inbox.

You'll start receiving severe weather alerts in your inbox..

×

10-Day Weather Forecast

Almanac

Astronomy

Dec. 12, 2019 Rise Set
Actual Time
Civil Twilight
Nautical Twilight
Astronomical Twilight
Moon
Length of Visible Light
Length of Day
Tomorrow will be .
, % of the Moon is Illuminated

Today's Extremes

State Highs State Lows

Community

WunderPhotos

Category 6

Welcome to Category 6. This is the collective home for Weather Underground's featured writeups by Dr. Jeff Masters (right), Bob Henson (left), Chris Burt, and other regular contributors.

Nearby

Air Quality

  Air Quality AQ Index Pollutant
Not available.

Snow Depth

Station Depth Elevation

Earthquake Activity

City Distance Mag. Time & Date
Minimum magnitude displayed is 2.5.

Coastal Water Temperatures

Place Temperature

Stations

Nearby Weather Stations

Station Location Temp. Windchill Dew Point Humidity Wind Precip. Elev Updated Type
                   

Watches & Warnings

Winter Storm Warning
Issued: 9:55 PM CST Dec. 11, 2019 – National Weather Service

... Winter Storm Warning remains in effect from 3 am to 6 PM CST
Thursday...

* what... heavy snow expected. Total snow accumulations of 5 to 7
inches.

* Where... Forest, Florence, northern Marinette County and
southern Marinette County counties.

* When... from 3 am to 6 PM CST Thursday.

* Impacts... roads and sidewalks will be slick. Air travel delays
are possible.

Precautionary/preparedness actions...

If you must travel, keep an extra flashlight, food, and water in
your vehicle in case of an emergency.

The latest Road conditions for the state you are calling from can
be obtained by calling 5 1 1.